Time;durP1;ratioP1;P1;durP2;ratioP2;P2;SDS_P1;SDS_P2;PMS_P1;PMS_P2;Temp;Humidity;BMP_temperature;BMP_pressure;BME280_temperature;BME280_humidity;BME280_pressure;Samples;Min_cycle;Max_cycle;Signal;HPM_P1;HPM_P2
2023/11/30 00:00:08;;;;;;;;;;;;;;;26.28;40.61;92827.41;5025909;28;7061;-62
2023/11/30 00:02:34;;;;;;;;;;;;;;;26.29;40.49;92820.63;5032395;28;7155;-61
2023/11/30 00:05:08;;;;;;;;;;;;;;;26.29;40.33;92810.34;5025120;28;7337;-61
2023/11/30 00:07:43;;;;;;;;;;;;;;;26.27;40.37;92806.66;5030324;28;7310;-61
2023/11/30 00:10:09;;;;;;;;;;;;;;;26.25;40.28;92814.75;5033041;28;9126;-61
2023/11/30 00:12:39;;;;;;;;;;;;;;;26.24;40.20;92818.78;5030174;28;8745;-61
2023/11/30 00:15:36;;;;;;;;;;;;;;;26.23;40.25;92812.53;5037680;28;7218;-61
2023/11/30 00:18:04;;;;;;;;;;;;;;;26.23;40.63;92800.78;4944522;28;9110;-61
2023/11/30 00:20:39;;;;;;;;;;;;;;;26.24;39.92;92803.00;4938385;28;6964;-61
2023/11/30 00:23:09;;;;;;;;;;;;;;;26.24;39.87;92799.50;4946331;28;6973;-61
2023/11/30 00:25:54;;;;;;;;;;;;;;;26.24;39.79;92796.72;4943020;28;9125;-61
2023/11/30 00:28:35;;;;;;;;;;;;;;;26.19;40.55;92789.41;4928834;29;7146;-61
2023/11/30 00:31:03;;;;;;;;;;;;;;;26.19;39.99;92783.91;4943386;28;7615;-61
2023/11/30 00:33:29;;;;;;;;;;;;;;;26.21;40.64;92786.84;4960843;28;7828;-61
2023/11/30 00:36:14;;;;;;;;;;;;;;;26.19;40.56;92770.84;4988901;28;9014;-61
2023/11/30 00:38:54;;;;;;;;;;;;;;;26.17;40.01;92763.13;4987757;28;7237;-61
2023/11/30 00:41:29;;;;;;;;;;;;;;;26.16;40.13;92778.19;4983827;28;7239;-61
2023/11/30 00:43:57;;;;;;;;;;;;;;;26.21;40.02;92784.06;4992923;28;7476;-61
2023/11/30 00:46:34;;;;;;;;;;;;;;;26.15;40.32;92789.75;4972703;28;9508;-61
2023/11/30 00:49:01;;;;;;;;;;;;;;;26.13;40.76;92787.56;4983179;28;9189;-61
2023/11/30 00:51:34;;;;;;;;;;;;;;;26.09;40.02;92775.44;4983612;28;9031;-61
2023/11/30 00:54:02;;;;;;;;;;;;;;;26.08;40.48;92760.94;5010423;28;7275;-61
2023/11/30 00:56:28;;;;;;;;;;;;;;;26.07;40.00;92751.19;5056486;28;7029;-61
2023/11/30 00:58:56;;;;;;;;;;;;;;;26.05;40.10;92742.75;5063779;28;9392;-61
2023/11/30 01:01:22;;;;;;;;;;;;;;;26.06;40.18;92741.44;5072699;28;7474;-61
2023/11/30 01:03:57;;;;;;;;;;;;;;;26.06;40.55;92744.19;5057579;28;8711;-61
2023/11/30 01:06:27;;;;;;;;;;;;;;;26.03;40.58;92737.03;5057865;28;7195;-61
2023/11/30 01:09:00;;;;;;;;;;;;;;;26.04;40.95;92729.50;5065130;28;6989;-61
2023/11/30 01:11:28;;;;;;;;;;;;;;;26.02;40.71;92730.06;5048228;28;9499;-61
2023/11/30 01:14:16;;;;;;;;;;;;;;;26.03;40.34;92733.56;5059126;28;7093;-53
2023/11/30 01:16:45;;;;;;;;;;;;;;;26.01;40.70;92725.09;5068233;28;9233;-53
2023/11/30 01:19:20;;;;;;;;;;;;;;;26.01;40.63;92731.34;5057552;28;8206;-53
2023/11/30 01:21:50;;;;;;;;;;;;;;;26.01;41.05;92725.09;5053709;28;7226;-53
2023/11/30 01:24:44;;;;;;;;;;;;;;;26.00;40.50;92724.38;5041388;28;6992;-53
2023/11/30 01:27:17;;;;;;;;;;;;;;;25.98;40.51;92726.94;5055224;28;7006;-53
2023/11/30 01:30:04;;;;;;;;;;;;;;;26.00;41.02;92734.66;5051534;28;7128;-53
2023/11/30 01:32:49;;;;;;;;;;;;;;;25.99;40.51;92750.44;5068543;28;8047;-54
2023/11/30 01:35:18;;;;;;;;;;;;;;;25.97;40.95;92750.25;5054713;28;7233;-53
2023/11/30 01:37:51;;;;;;;;;;;;;;;25.98;40.77;92748.25;5077087;28;7130;-53
2023/11/30 01:40:26;;;;;;;;;;;;;;;25.98;41.13;92754.50;5056580;28;7057;-53
2023/11/30 01:43:04;;;;;;;;;;;;;;;25.96;40.39;92762.56;5061335;28;7230;-53
2023/11/30 01:45:30;;;;;;;;;;;;;;;25.95;40.53;92765.88;5058909;28;6972;-53
2023/11/30 01:47:58;;;;;;;;;;;;;;;25.96;40.80;92770.09;5057956;28;9141;-53
2023/11/30 01:51:02;;;;;;;;;;;;;;;25.96;40.88;92754.31;5052341;28;7032;-53
2023/11/30 01:53:30;;;;;;;;;;;;;;;25.92;40.46;92742.94;5072021;28;7386;-53
2023/11/30 01:56:07;;;;;;;;;;;;;;;25.93;40.22;92736.13;5054367;28;7444;-53
2023/11/30 01:59:00;;;;;;;;;;;;;;;25.94;40.40;92743.13;5052084;28;7012;-53
2023/11/30 02:01:30;;;;;;;;;;;;;;;25.94;40.74;92745.13;5046227;28;7187;-53
2023/11/30 02:04:40;;;;;;;;;;;;;;;25.94;40.59;92754.13;5075337;28;9048;-53
2023/11/30 02:07:15;;;;;;;;;;;;;;;25.91;41.03;92746.97;5068614;28;9109;-53
2023/11/30 02:10:25;;;;;;;;;;;;;;;25.93;40.38;92744.38;5080693;28;7078;-53
2023/11/30 02:12:58;;;;;;;;;;;;;;;25.92;41.23;92742.94;5070382;28;9701;-53
2023/11/30 02:15:51;;;;;;;;;;;;;;;25.91;40.90;92738.69;5052579;28;6992;-53
2023/11/30 02:18:19;;;;;;;;;;;;;;;25.90;40.69;92748.22;5011344;28;7212;-53
2023/11/30 02:20:56;;;;;;;;;;;;;;;25.91;40.28;92743.47;5001896;28;9082;-53
2023/11/30 02:23:36;;;;;;;;;;;;;;;25.92;40.43;92742.19;5020089;28;7626;-52
2023/11/30 02:26:04;;;;;;;;;;;;;;;25.90;41.23;92733.75;5011322;28;7304;-52
2023/11/30 02:28:56;;;;;;;;;;;;;;;25.92;40.80;92728.41;5004320;28;6992;-53
2023/11/30 02:31:40;;;;;;;;;;;;;;;25.89;40.36;92727.50;5020942;28;8754;-53
2023/11/30 02:34:15;;;;;;;;;;;;;;;25.91;40.77;92733.19;5001009;28;7254;-52
2023/11/30 02:36:57;;;;;;;;;;;;;;;25.90;41.01;92736.50;4995839;28;9028;-52
2023/11/30 02:39:38;;;;;;;;;;;;;;;25.91;41.06;92749.72;5003723;28;7015;-53
2023/11/30 02:42:15;;;;;;;;;;;;;;;25.93;40.90;92754.66;5018333;28;7219;-53
2023/11/30 02:44:41;;;;;;;;;;;;;;;25.90;41.11;92762.00;5008597;28;9762;-53
2023/11/30 02:47:23;;;;;;;;;;;;;;;25.89;40.43;92757.06;5021597;28;7102;-54
2023/11/30 02:50:05;;;;;;;;;;;;;;;25.90;40.46;92755.78;5000587;28;9470;-53
2023/11/30 02:52:39;;;;;;;;;;;;;;;25.89;40.83;92740.53;4993447;28;7856;-53
2023/11/30 02:55:14;;;;;;;;;;;;;;;25.87;40.45;92749.34;5022651;28;7050;-53
2023/11/30 02:57:42;;;;;;;;;;;;;;;25.87;40.97;92737.59;5055200;28;9435;-53
2023/11/30 03:00:11;;;;;;;;;;;;;;;25.88;40.94;92739.06;5055120;28;9169;-53
2023/11/30 03:02:37;;;;;;;;;;;;;;;25.88;41.15;92736.31;5078776;28;9289;-52
2023/11/30 03:05:33;;;;;;;;;;;;;;;25.88;40.94;92728.78;5077535;28;9067;-53
2023/11/30 03:08:20;;;;;;;;;;;;;;;25.87;40.89;92705.28;4996322;28;8403;-53
2023/11/30 03:10:57;;;;;;;;;;;;;;;25.86;41.10;92709.31;4995347;28;7331;-53
2023/11/30 03:13:23;;;;;;;;;;;;;;;25.83;41.16;92712.44;4984609;28;6993;-53
2023/11/30 03:16:26;;;;;;;;;;;;;;;25.84;40.20;92706.38;4980754;28;9050;-52
2023/11/30 03:19:26;;;;;;;;;;;;;;;25.86;40.88;92701.06;4967751;28;7837;-51
2023/11/30 03:22:07;;;;;;;;;;;;;;;25.86;40.30;92703.81;4862117;29;7007;-53
2023/11/30 03:24:44;;;;;;;;;;;;;;;25.83;40.20;92710.44;4878016;29;7242;-51
2023/11/30 03:27:11;;;;;;;;;;;;;;;25.85;40.46;92702.34;4875280;29;9627;-53
2023/11/30 03:30:24;;;;;;;;;;;;;;;25.86;40.56;92694.84;4850717;29;9158;-53
2023/11/30 03:33:10;;;;;;;;;;;;;;;25.85;40.75;92694.09;4875500;29;7286;-61
2023/11/30 03:35:50;;;;;;;;;;;;;;;25.81;40.31;92693.00;4880713;29;7255;-61
2023/11/30 03:38:16;;;;;;;;;;;;;;;25.81;40.75;92717.78;4878178;29;9067;-61
2023/11/30 03:40:44;;;;;;;;;;;;;;;25.83;39.98;92732.47;4871792;29;9171;-61
2023/11/30 03:43:10;;;;;;;;;;;;;;;25.83;40.61;92729.72;4885554;29;7069;-61
2023/11/30 03:45:45;;;;;;;;;;;;;;;25.86;40.66;92736.16;4887902;29;7002;-61
2023/11/30 03:48:42;;;;;;;;;;;;;;;25.84;40.16;92738.69;4867165;29;8050;-61
2023/11/30 03:51:47;;;;;;;;;;;;;;;25.83;40.68;92718.69;4844562;29;7095;-61
2023/11/30 03:54:23;;;;;;;;;;;;;;;25.81;40.72;92710.25;4843685;29;8810;-61
2023/11/30 03:56:49;;;;;;;;;;;;;;;25.81;40.55;92712.28;4901523;28;7312;-61
2023/11/30 03:59:26;;;;;;;;;;;;;;;25.81;40.81;92713.00;4990084;28;7258;-61
2023/11/30 04:02:21;;;;;;;;;;;;;;;25.81;40.79;92698.50;4965550;28;7085;-61
2023/11/30 04:04:53;;;;;;;;;;;;;;;25.81;40.18;92696.47;4936564;28;7275;-61
2023/11/30 04:07:50;;;;;;;;;;;;;;;25.82;40.32;92697.94;4929639;28;7002;-61
2023/11/30 04:10:16;;;;;;;;;;;;;;;25.82;40.23;92691.69;4894534;29;7080;-61
2023/11/30 04:12:55;;;;;;;;;;;;;;;25.79;40.33;92676.28;4913381;29;9173;-61
2023/11/30 04:15:41;;;;;;;;;;;;;;;25.80;40.30;92672.97;4910170;29;8528;-61
2023/11/30 04:18:26;;;;;;;;;;;;;;;25.80;40.87;92677.75;4908738;29;9175;-61
2023/11/30 04:21:11;;;;;;;;;;;;;;;25.81;40.82;92668.22;4918272;29;7258;-61
2023/11/30 04:23:47;;;;;;;;;;;;;;;25.80;40.60;92663.97;4906398;29;8614;-61
2023/11/30 04:26:28;;;;;;;;;;;;;;;25.76;40.08;92656.09;4900838;29;9456;-61
2023/11/30 04:28:56;;;;;;;;;;;;;;;25.79;40.35;92648.75;4947082;28;9025;-61
2023/11/30 04:31:23;;;;;;;;;;;;;;;25.80;39.92;92648.19;4941143;28;7250;-61
2023/11/30 04:34:18;;;;;;;;;;;;;;;25.79;40.64;92637.72;4939634;28;7018;-61
2023/11/30 04:36:55;;;;;;;;;;;;;;;25.76;40.85;92630.56;4938919;28;8302;-61
2023/11/30 04:39:45;;;;;;;;;;;;;;;25.80;40.68;92630.91;4938624;28;8368;-61
2023/11/30 04:42:14;;;;;;;;;;;;;;;25.78;39.86;92625.97;4960922;28;9080;-55
2023/11/30 04:44:51;;;;;;;;;;;;;;;25.76;40.53;92617.53;4968894;28;9061;-55
2023/11/30 04:47:24;;;;;;;;;;;;;;;25.77;40.02;92605.25;5035586;28;8174;-55
2023/11/30 04:49:52;;;;;;;;;;;;;;;25.77;39.90;92602.50;5051946;28;8283;-55
2023/11/30 04:52:23;;;;;;;;;;;;;;;25.78;40.60;92592.19;5059051;28;7204;-55
2023/11/30 04:54:56;;;;;;;;;;;;;;;25.77;40.41;92590.75;5066070;28;7187;-55
2023/11/30 04:57:28;;;;;;;;;;;;;;;25.78;39.80;92597.69;5078116;28;7354;-55
2023/11/30 05:00:24;;;;;;;;;;;;;;;25.77;40.51;92587.97;5061861;28;7219;-55
2023/11/30 05:02:56;;;;;;;;;;;;;;;25.77;39.98;92583.22;5006219;28;7077;-55
2023/11/30 05:05:41;;;;;;;;;;;;;;;25.79;40.38;92580.63;5005017;28;8771;-55
2023/11/30 05:08:09;;;;;;;;;;;;;;;25.81;40.30;92569.06;5002993;28;9169;-55
2023/11/30 05:10:36;;;;;;;;;;;;;;;25.80;39.98;92567.59;5012792;28;7206;-54
2023/11/30 05:13:15;;;;;;;;;;;;;;;25.80;40.25;92565.56;5005744;28;7371;-54
2023/11/30 05:15:41;;;;;;;;;;;;;;;25.79;40.52;92552.34;4987813;28;8748;-54
2023/11/30 05:18:09;;;;;;;;;;;;;;;25.79;40.47;92546.84;5005247;28;7429;-55
2023/11/30 05:20:45;;;;;;;;;;;;;;;25.80;40.73;92546.28;4999978;28;9117;-55
2023/11/30 05:23:27;;;;;;;;;;;;;;;25.78;40.35;92540.59;4996926;28;7477;-54
2023/11/30 05:25:54;;;;;;;;;;;;;;;25.79;39.76;92547.59;5000488;28;8776;-55
2023/11/30 05:28:32;;;;;;;;;;;;;;;25.76;39.87;92537.69;5009645;28;7013;-55
2023/11/30 05:30:58;;;;;;;;;;;;;;;25.77;39.84;92536.41;5007652;28;8669;-55
2023/11/30 05:33:39;;;;;;;;;;;;;;;25.81;39.70;92536.00;4989314;28;7311;-54
2023/11/30 05:36:15;;;;;;;;;;;;;;;25.79;40.46;92533.81;5002378;28;8902;-55
2023/11/30 05:38:51;;;;;;;;;;;;;;;25.80;40.34;92529.75;5011879;28;7349;-55
2023/11/30 05:41:20;;;;;;;;;;;;;;;25.80;40.16;92526.28;5052940;28;7234;-55
2023/11/30 05:43:50;;;;;;;;;;;;;;;25.80;39.62;92523.53;5065544;28;7330;-55
2023/11/30 05:46:23;;;;;;;;;;;;;;;25.81;40.35;92509.22;5052719;28;7281;-55
2023/11/30 05:48:58;;;;;;;;;;;;;;;25.80;40.27;92499.47;5051729;28;6867;-55
2023/11/30 05:51:39;;;;;;;;;;;;;;;25.80;40.00;92493.97;5067325;28;7258;-54
2023/11/30 05:54:12;;;;;;;;;;;;;;;25.84;41.05;92485.31;5061992;28;7190;-59
2023/11/30 05:56:48;;;;;;;;;;;;;;;25.86;40.47;92474.50;5054563;28;9731;-59
2023/11/30 05:59:15;;;;;;;;;;;;;;;25.90;40.21;92474.84;5052112;28;9132;-59
2023/11/30 06:02:01;;;;;;;;;;;;;;;25.91;40.49;92479.03;5063260;28;8175;-59
2023/11/30 06:04:31;;;;;;;;;;;;;;;25.94;40.57;92475.91;5051205;28;7246;-59
2023/11/30 06:07:00;;;;;;;;;;;;;;;25.94;40.00;92483.44;5068378;28;9248;-59
2023/11/30 06:09:27;;;;;;;;;;;;;;;25.98;40.01;92478.28;5074588;28;6997;-59
2023/11/30 06:11:54;;;;;;;;;;;;;;;26.00;40.17;92479.19;5052862;28;7848;-59
2023/11/30 06:14:26;;;;;;;;;;;;;;;26.00;39.70;92487.44;5068518;28;9150;-59
2023/11/30 06:17:03;;;;;;;;;;;;;;;25.97;40.27;92476.81;5066256;28;9080;-59
2023/11/30 06:19:34;;;;;;;;;;;;;;;25.99;40.02;92479.75;5051097;28;7245;-58
2023/11/30 06:22:01;;;;;;;;;;;;;;;25.99;41.16;92480.47;5047709;28;9448;-59
2023/11/30 06:24:43;;;;;;;;;;;;;;;26.01;40.88;92480.63;5048015;28;7000;-58
2023/11/30 06:27:11;;;;;;;;;;;;;;;26.02;40.37;92479.34;5068334;28;9036;-59
2023/11/30 06:29:46;;;;;;;;;;;;;;;26.05;39.92;92477.50;5052146;28;9046;-59
2023/11/30 06:32:16;;;;;;;;;;;;;;;26.06;40.16;92474.19;5083271;28;7122;-58
2023/11/30 06:35:03;;;;;;;;;;;;;;;26.08;39.88;92474.38;5057167;28;7172;-59
2023/11/30 06:37:29;;;;;;;;;;;;;;;26.09;39.56;92472.38;5050214;28;7671;-58
2023/11/30 06:40:08;;;;;;;;;;;;;;;26.08;39.60;92465.34;5060662;28;7216;-59
2023/11/30 06:43:01;;;;;;;;;;;;;;;26.11;39.34;92470.53;5074473;28;7415;-58
2023/11/30 06:45:35;;;;;;;;;;;;;;;26.08;38.50;92462.59;5038799;28;7217;-59
2023/11/30 06:48:07;;;;;;;;;;;;;;;26.05;37.97;92463.75;5017366;28;8705;-59
2023/11/30 06:50:33;;;;;;;;;;;;;;;26.03;37.79;92464.28;5036613;28;7678;-58
2023/11/30 06:53:01;;;;;;;;;;;;;;;25.95;36.27;92455.34;5032683;28;7230;-59
2023/11/30 06:55:28;;;;;;;;;;;;;;;25.94;36.69;92459.38;5040770;28;7217;-59
2023/11/30 06:57:54;;;;;;;;;;;;;;;25.95;36.61;92457.34;5037302;28;7030;-59
2023/11/30 07:00:31;;;;;;;;;;;;;;;25.95;36.27;92463.59;5021001;28;7024;-59
2023/11/30 07:03:10;;;;;;;;;;;;;;;25.93;36.04;92457.91;5034975;28;9072;-51
2023/11/30 07:05:36;;;;;;;;;;;;;;;25.94;36.30;92461.41;5035845;28;9039;-53
2023/11/30 07:08:14;;;;;;;;;;;;;;;25.92;35.69;92464.72;5026235;28;6972;-52
2023/11/30 07:10:40;;;;;;;;;;;;;;;25.94;35.97;92462.16;5036410;28;7232;-52
2023/11/30 07:13:18;;;;;;;;;;;;;;;25.96;36.03;92459.56;5017294;28;8708;-53
2023/11/30 07:15:45;;;;;;;;;;;;;;;25.97;36.17;92458.25;5038752;28;7329;-53
2023/11/30 07:18:43;;;;;;;;;;;;;;;25.99;36.26;92460.47;5012175;28;7298;-54
2023/11/30 07:21:37;;;;;;;;;;;;;;;26.01;36.04;92466.88;4975557;28;8592;-54
2023/11/30 07:24:03;;;;;;;;;;;;;;;26.01;36.25;92463.41;5015554;28;9030;-53
2023/11/30 07:26:31;;;;;;;;;;;;;;;26.05;36.33;92461.72;4996219;28;7877;-53
2023/11/30 07:29:10;;;;;;;;;;;;;;;26.06;36.86;92462.44;4997803;28;7189;-54
2023/11/30 07:32:07;;;;;;;;;;;;;;;26.04;36.88;92465.75;4984979;28;7259;-54
2023/11/30 07:34:56;;;;;;;;;;;;;;;26.05;36.63;92460.97;5004239;28;7230;-54
2023/11/30 07:37:35;;;;;;;;;;;;;;;26.05;36.45;92460.97;5012910;28;9228;-54
2023/11/30 07:40:37;;;;;;;;;;;;;;;26.05;35.99;92456.22;4990592;28;7205;-54
2023/11/30 07:43:04;;;;;;;;;;;;;;;26.06;36.50;92467.94;4985011;28;9108;-54
2023/11/30 07:45:50;;;;;;;;;;;;;;;26.06;36.69;92462.44;4999633;28;7241;-53
2023/11/30 07:48:16;;;;;;;;;;;;;;;26.04;36.53;92465.75;4982480;28;7090;-54
2023/11/30 07:51:07;;;;;;;;;;;;;;;26.06;36.50;92465.19;5017124;28;9217;-53
2023/11/30 07:53:33;;;;;;;;;;;;;;;26.04;36.37;92460.25;5007209;28;7347;-54
2023/11/30 07:56:25;;;;;;;;;;;;;;;26.06;36.71;92474.19;5022787;28;7198;-52
2023/11/30 07:59:16;;;;;;;;;;;;;;;26.08;36.47;92476.38;5002936;28;7124;-54
2023/11/30 08:02:04;;;;;;;;;;;;;;;26.06;36.58;92479.69;5005758;28;7275;-54
2023/11/30 08:04:30;;;;;;;;;;;;;;;26.06;37.13;92474.19;4992584;28;7408;-54
2023/11/30 08:07:04;;;;;;;;;;;;;;;26.07;36.97;92489.44;5002126;28;7324;-54
2023/11/30 08:09:31;;;;;;;;;;;;;;;26.07;37.08;92481.19;4990506;28;7191;-54
2023/11/30 08:11:56;;;;;;;;;;;;;;;26.09;37.59;92473.09;5002886;28;6966;-54
2023/11/30 08:14:23;;;;;;;;;;;;;;;26.09;37.51;92475.88;4991746;28;7310;-54
2023/11/30 08:17:05;;;;;;;;;;;;;;;26.08;37.42;92477.16;4993430;28;6995;-54
2023/11/30 08:19:52;;;;;;;;;;;;;;;26.09;37.60;92475.88;4996769;28;8905;-54
2023/11/30 08:22:19;;;;;;;;;;;;;;;26.11;37.62;92487.06;4992080;28;7326;-55
2023/11/30 08:25:11;;;;;;;;;;;;;;;26.13;37.81;92487.22;4999335;28;7083;-55
2023/11/30 08:27:50;;;;;;;;;;;;;;;26.15;38.25;92472.88;4990869;28;7289;-54
2023/11/30 08:30:26;;;;;;;;;;;;;;;26.12;37.93;92460.94;4995174;28;7092;-55
2023/11/30 08:32:54;;;;;;;;;;;;;;;26.11;38.44;92454.00;4995105;28;7168;-54
2023/11/30 08:35:27;;;;;;;;;;;;;;;26.14;38.05;92457.66;5011830;28;7224;-54
2023/11/30 08:37:53;;;;;;;;;;;;;;;26.14;38.35;92463.88;5071952;28;6995;-54
2023/11/30 08:40:25;;;;;;;;;;;;;;;26.16;37.74;92464.03;5058851;28;7601;-54
2023/11/30 08:43:00;;;;;;;;;;;;;;;26.12;37.85;92460.94;5050450;28;7285;-54
2023/11/30 08:45:32;;;;;;;;;;;;;;;26.14;37.38;92454.91;5051281;28;8751;-54
2023/11/30 08:48:00;;;;;;;;;;;;;;;26.15;38.26;92462.59;5065471;28;7373;-55
2023/11/30 08:50:29;;;;;;;;;;;;;;;26.13;38.60;92447.91;5074652;28;9083;-54
2023/11/30 08:53:21;;;;;;;;;;;;;;;26.20;37.72;92460.19;5070441;28;8975;-54
2023/11/30 08:55:59;;;;;;;;;;;;;;;26.19;38.26;92455.97;5072000;28;6924;-54
2023/11/30 08:58:48;;;;;;;;;;;;;;;26.19;38.19;92455.97;5071087;28;7204;-55
2023/11/30 09:01:44;;;;;;;;;;;;;;;26.16;37.64;92455.78;5064742;28;8704;-55
2023/11/30 09:04:29;;;;;;;;;;;;;;;26.13;38.13;92442.41;4963924;28;7263;-55
2023/11/30 09:07:10;;;;;;;;;;;;;;;26.16;38.45;92450.25;4972755;28;7321;-55
2023/11/30 09:10:10;;;;;;;;;;;;;;;26.12;37.74;92451.97;4976272;28;7187;-55
2023/11/30 09:12:49;;;;;;;;;;;;;;;26.12;38.47;92452.69;4944409;28;7177;-55
2023/11/30 09:15:15;;;;;;;;;;;;;;;26.13;38.50;92450.66;4951387;28;7071;-55
2023/11/30 09:18:12;;;;;;;;;;;;;;;26.13;37.81;92461.69;4949833;28;9360;-55
2023/11/30 09:20:59;;;;;;;;;;;;;;;26.12;38.36;92458.19;4909724;29;7437;-55
2023/11/30 09:23:35;;;;;;;;;;;;;;;26.11;38.47;92459.50;4895952;29;7998;-60
2023/11/30 09:26:25;;;;;;;;;;;;;;;26.16;38.02;92471.59;4896350;29;8878;-60
2023/11/30 09:28:51;;;;;;;;;;;;;;;26.17;38.25;92473.78;4899083;29;7486;-60
2023/11/30 09:31:41;;;;;;;;;;;;;;;26.11;37.68;92470.53;4888395;29;7232;-60
2023/11/30 09:34:17;;;;;;;;;;;;;;;26.09;37.78;92475.88;4878200;29;7634;-60
2023/11/30 09:36:44;;;;;;;;;;;;;;;26.10;38.17;92477.31;4887972;29;9229;-60
2023/11/30 09:39:14;;;;;;;;;;;;;;;26.11;37.44;92475.28;4898285;29;9542;-60
2023/11/30 09:41:41;;;;;;;;;;;;;;;26.11;37.98;92465.00;4928077;29;7217;-59
2023/11/30 09:44:16;;;;;;;;;;;;;;;26.11;37.93;92454.00;4913969;29;9178;-60
2023/11/30 09:46:46;;;;;;;;;;;;;;;26.09;37.47;92453.81;4932245;29;7236;-60
2023/11/30 09:49:14;;;;;;;;;;;;;;;26.10;36.66;92457.28;5004582;28;8780;-60
2023/11/30 09:51:45;;;;;;;;;;;;;;;26.10;36.45;92458.03;5007050;28;7316;-60
2023/11/30 09:54:42;;;;;;;;;;;;;;;26.08;36.67;92448.81;5004101;28;7231;-60
2023/11/30 09:57:27;;;;;;;;;;;;;;;26.05;36.86;92453.47;4925344;28;6999;-60
2023/11/30 09:59:54;;;;;;;;;;;;;;;26.06;36.83;92443.88;4962068;28;7003;-60
2023/11/30 10:02:23;;;;;;;;;;;;;;;26.06;36.22;92443.88;4963892;28;9088;-60
2023/11/30 10:04:51;;;;;;;;;;;;;;;26.07;36.60;92439.84;4960045;28;7251;-60
2023/11/30 10:07:20;;;;;;;;;;;;;;;26.06;36.69;92446.63;4968124;28;7563;-60
2023/11/30 10:09:58;;;;;;;;;;;;;;;26.05;36.58;92434.16;4977675;28;7170;-61
2023/11/30 10:12:46;;;;;;;;;;;;;;;26.07;36.68;92436.34;4962964;28;7655;-61
2023/11/30 10:15:24;;;;;;;;;;;;;;;26.08;36.81;92424.78;4973897;28;7336;-62
2023/11/30 10:17:51;;;;;;;;;;;;;;;26.05;36.61;92425.16;4978363;28;6990;-61
2023/11/30 10:20:22;;;;;;;;;;;;;;;26.08;36.36;92419.28;4962594;28;7321;-60
2023/11/30 10:22:49;;;;;;;;;;;;;;;26.07;37.31;92415.06;4966866;28;7311;-62
2023/11/30 10:25:27;;;;;;;;;;;;;;;26.06;36.60;92415.59;4960412;28;8807;-62
2023/11/30 10:27:58;;;;;;;;;;;;;;;26.08;36.81;92422.03;4974437;28;9141;-61
2023/11/30 10:30:42;;;;;;;;;;;;;;;26.09;36.56;92412.50;4973289;28;7023;-62
2023/11/30 10:33:38;;;;;;;;;;;;;;;26.09;37.09;92414.50;5002367;28;7030;-60
2023/11/30 10:36:08;;;;;;;;;;;;;;;26.08;36.81;92415.75;5065723;28;8872;-61
2023/11/30 10:38:41;;;;;;;;;;;;;;;26.06;37.08;92421.09;5058594;28;7020;-60
2023/11/30 10:41:22;;;;;;;;;;;;;;;26.09;37.15;92420.75;5074999;28;7122;-61
2023/11/30 10:43:51;;;;;;;;;;;;;;;26.09;36.98;92398.72;5051858;28;7245;-61
2023/11/30 10:46:18;;;;;;;;;;;;;;;26.10;37.23;92405.69;5054291;28;7001;-60
2023/11/30 10:48:44;;;;;;;;;;;;;;;26.10;36.10;92399.44;5049821;28;9298;-60
2023/11/30 10:51:12;;;;;;;;;;;;;;;26.10;36.05;92402.91;5032759;28;7132;-61
2023/11/30 10:53:56;;;;;;;;;;;;;;;26.08;36.74;92400.00;5059501;28;7266;-61
2023/11/30 10:56:23;;;;;;;;;;;;;;;26.08;36.34;92394.50;5070147;28;7009;-60
2023/11/30 10:58:49;;;;;;;;;;;;;;;26.09;35.72;92395.22;5053608;28;6995;-60
2023/11/30 11:01:17;;;;;;;;;;;;;;;26.05;35.79;92378.34;5040643;28;7562;-61
2023/11/30 11:03:47;;;;;;;;;;;;;;;26.06;36.01;92388.78;5048951;28;8782;-61
2023/11/30 11:06:15;;;;;;;;;;;;;;;26.05;35.89;92384.59;5037778;28;6985;-60
2023/11/30 11:09:05;;;;;;;;;;;;;;;26.05;36.11;92390.09;5048200;28;6968;-61
2023/11/30 11:11:40;;;;;;;;;;;;;;;26.05;35.68;92383.84;5070582;28;8682;-61
2023/11/30 11:14:52;;;;;;;;;;;;;;;26.06;35.37;92386.03;5054029;28;7320;-61
2023/11/30 11:17:51;;;;;;;;;;;;;;;26.06;35.73;92388.03;5006277;28;7113;-60
2023/11/30 11:20:24;;;;;;;;;;;;;;;26.05;35.73;92381.81;5006220;28;8260;-61
2023/11/30 11:23:21;;;;;;;;;;;;;;;26.06;36.71;92380.50;5021931;28;7238;-61
2023/11/30 11:26:02;;;;;;;;;;;;;;;26.07;35.57;92386.75;4974880;28;7249;-61
2023/11/30 11:28:40;;;;;;;;;;;;;;;26.06;36.45;92390.81;4975222;28;7181;-61
2023/11/30 11:31:08;;;;;;;;;;;;;;;26.06;36.11;92388.78;4974762;28;9103;-61
2023/11/30 11:33:48;;;;;;;;;;;;;;;26.06;36.19;92385.28;4958406;28;7045;-61
2023/11/30 11:36:43;;;;;;;;;;;;;;;26.06;36.24;92388.78;4974750;28;6969;-61
2023/11/30 11:39:13;;;;;;;;;;;;;;;26.06;35.64;92377.75;4974877;28;9014;-61
2023/11/30 11:41:53;;;;;;;;;;;;;;;26.06;36.28;92377.03;4974521;28;7299;-60
2023/11/30 11:44:23;;;;;;;;;;;;;;;26.06;36.47;92377.03;4961378;28;7003;-62
2023/11/30 11:46:50;;;;;;;;;;;;;;;26.04;36.73;92385.13;4973412;28;7378;-62
2023/11/30 11:49:16;;;;;;;;;;;;;;;26.07;36.58;92375.75;4972781;28;7028;-62
2023/11/30 11:52:00;;;;;;;;;;;;;;;26.08;36.63;92377.97;4958389;28;9034;-62
2023/11/30 11:54:35;;;;;;;;;;;;;;;26.07;36.34;92373.72;4986976;28;8875;-62
2023/11/30 11:57:36;;;;;;;;;;;;;;;26.04;36.53;92379.63;4990732;28;7252;-62
2023/11/30 12:00:17;;;;;;;;;;;;;;;26.05;36.60;92362.53;4985319;28;7298;-61
2023/11/30 12:02:47;;;;;;;;;;;;;;;26.07;36.32;92376.47;5037430;28;8791;-61
2023/11/30 12:05:27;;;;;;;;;;;;;;;26.03;36.41;92354.09;5070447;28;8070;-62
2023/11/30 12:08:01;;;;;;;;;;;;;;;26.03;36.46;92370.59;5062415;28;8860;-63
2023/11/30 12:10:48;;;;;;;;;;;;;;;26.06;36.33;92357.75;5070152;28;8926;-63
2023/11/30 12:13:26;;;;;;;;;;;;;;;26.08;36.47;92371.69;5047423;28;7234;-62
2023/11/30 12:16:00;;;;;;;;;;;;;;;26.06;35.91;92352.22;5054573;28;9053;-64
2023/11/30 12:18:35;;;;;;;;;;;;;;;26.08;36.62;92358.66;5053214;28;8816;-64
2023/11/30 12:21:03;;;;;;;;;;;;;;;26.06;35.99;92355.00;5070310;28;8817;-63
2023/11/30 12:23:29;;;;;;;;;;;;;;;26.06;36.31;92357.75;5070484;28;7008;-63
2023/11/30 12:26:16;;;;;;;;;;;;;;;26.02;36.38;92341.63;5065938;28;9140;-64
2023/11/30 12:28:44;;;;;;;;;;;;;;;26.06;36.12;92347.47;5070298;28;7844;-63
2023/11/30 12:31:29;;;;;;;;;;;;;;;26.06;36.52;92341.22;5053334;28;7324;-63
2023/11/30 12:33:58;;;;;;;;;;;;;;;26.07;35.43;92342.69;5070471;28;7304;-63
2023/11/30 12:36:25;;;;;;;;;;;;;;;26.07;36.00;92350.94;5057347;28;7237;-64
2023/11/30 12:38:54;;;;;;;;;;;;;;;26.06;36.23;92347.47;5057344;28;8767;-64
2023/11/30 12:41:29;;;;;;;;;;;;;;;26.06;35.44;92355.72;5071264;28;9148;-63
2023/11/30 12:43:57;;;;;;;;;;;;;;;26.05;35.86;92342.53;5073197;28;9072;-63
2023/11/30 12:46:32;;;;;;;;;;;;;;;26.05;35.43;92346.00;5060097;28;7184;-62
2023/11/30 12:48:58;;;;;;;;;;;;;;;26.07;35.77;92348.19;5049389;28;6995;-63
2023/11/30 12:51:24;;;;;;;;;;;;;;;26.03;35.58;92348.56;5062999;28;7205;-63
2023/11/30 12:53:52;;;;;;;;;;;;;;;26.04;35.23;92344.53;5069085;28;7175;-60
2023/11/30 12:56:33;;;;;;;;;;;;;;;26.06;34.87;92350.22;5065928;28;7318;-60
2023/11/30 12:59:01;;;;;;;;;;;;;;;26.05;35.25;92339.75;5053473;28;7092;-60
2023/11/30 13:01:39;;;;;;;;;;;;;;;26.06;35.40;92350.22;5062762;28;9163;-60
2023/11/30 13:04:21;;;;;;;;;;;;;;;26.04;35.14;92368.59;5077005;28;7000;-60
2023/11/30 13:06:47;;;;;;;;;;;;;;;26.05;35.34;92350.78;5071927;28;9255;-60
2023/11/30 13:09:21;;;;;;;;;;;;;;;26.07;35.85;92353.72;5073354;28;9073;-60
2023/11/30 13:11:48;;;;;;;;;;;;;;;26.08;35.24;92341.38;5046234;28;8374;-60
2023/11/30 13:14:20;;;;;;;;;;;;;;;26.07;35.28;92348.94;5057675;28;7040;-60
2023/11/30 13:16:53;;;;;;;;;;;;;;;26.09;35.46;92365.66;5037975;28;7216;-59
2023/11/30 13:19:19;;;;;;;;;;;;;;;26.04;35.97;92365.84;5056877;28;7251;-59
2023/11/30 13:22:05;;;;;;;;;;;;;;;26.06;35.64;92366.75;5063135;28;7222;-59
2023/11/30 13:24:54;;;;;;;;;;;;;;;26.06;35.87;92350.22;5060461;28;7017;-59
2023/11/30 13:27:53;;;;;;;;;;;;;;;26.04;35.14;92352.81;5071522;28;7164;-59
2023/11/30 13:30:20;;;;;;;;;;;;;;;25.99;34.73;92359.25;5056063;28;7265;-59
2023/11/30 13:33:05;;;;;;;;;;;;;;;26.01;34.38;92367.69;5052738;28;7399;-60
2023/11/30 13:35:40;;;;;;;;;;;;;;;26.01;33.63;92378.72;5059477;28;9447;-59
2023/11/30 13:38:15;;;;;;;;;;;;;;;25.97;34.04;92375.63;5057618;28;6985;-59
2023/11/30 13:40:43;;;;;;;;;;;;;;;25.97;33.76;92388.66;5072710;28;9024;-59
2023/11/30 13:43:25;;;;;;;;;;;;;;;25.98;33.26;92379.84;5047165;28;9068;-59
2023/11/30 13:46:04;;;;;;;;;;;;;;;25.99;32.62;92383.34;5063711;28;7849;-59